OTBD/DOH METAR and TAF weather

Enter ICAO airport designator
Station Type Date Time Source
OTBD METAR 2021/09/28 15:30 UTC NOAA

OTBD 281530Z 12006KT CAVOK 32/24 Q1004 NOSIG


Station Type Date Time Source
OTBD Decoded METAR 2021/09/28 15:30 UTC NOAA

Doha International Airport, Qatar (OTBD) 25-15N 051-34E 10M
Sep 28, 2021 - 11:30 AM EDT / 2021.09.28 1530 UTC
Wind: from the ESE (120 degrees) at 7 MPH (6 KT):0
Visibility: greater than 7 mile(s):0
Temperature: 89 F (32 C)
Heat index: 98.4 F (36.9 C):1
Dew Point: 75 F (24 C)
Relative Humidity: 62%
Pressure (altimeter): 29.65 in. Hg (1004 hPa)
ob: OTBD 281530Z 12006KT CAVOK 32/24 Q1004 NOSIG
cycle: 15

Station Type Date Time Source
OTBD TAF 2021/09/28 12:21 UTC NOAA

TAF TAF OTBD 281117Z 2812/2918 12010KT 8000 NSC
TEMPO 2817/2906 VRB03KT PROB30
TEMPO 2819/2902 5000 HZ
BECMG 2907/2909 05010KT

Example: see airport list